Terminal Aerodrome Forecast
Issued by NWS Tampa Bay Area, FL

Home | Current Version | Previous Version | Text Only | Print | Product List | Glossary On
Versions: 1 2 3 4 5 6 7 8 9 10 11 12 13 14 15 16 17 18 19 20 21 22 23 24 25 26 27 28 29
000
FTUS42 KTBW 282322
TAFTPA
TAF
KTPA 282322Z 2900/2924 05007KT P6SM SCT040 BKN150
     FM290300 VRB04KT P6SM FEW040 BKN250
     FM291400 14006KT P6SM VCSH SCT040 BKN120
     FM291800 21007KT P6SM VCTS SCT035CB BKN250=

USA.gov is the U.S. government's official web portal to all federal, state and local government web resources and services.